createdAt,value
2022-08-01T00:01:16.040Z,65.63
2022-08-01T00:03:43.856Z,64.92
2022-08-01T00:06:11.687Z,64.58
2022-08-01T00:08:39.521Z,64.54
2022-08-01T00:11:07.504Z,64.34
2022-08-01T00:13:36.424Z,64.03
2022-08-01T00:16:04.497Z,63.51
2022-08-01T00:18:32.432Z,64.32
2022-08-01T00:21:00.297Z,64.15
2022-08-01T00:23:28.111Z,63.94
2022-08-01T00:25:56.028Z,63.92
2022-08-01T00:28:23.894Z,64.07
2022-08-01T00:30:51.760Z,63.92
2022-08-01T00:33:19.533Z,64.00
2022-08-01T00:35:47.305Z,64.16
2022-08-01T00:38:15.255Z,63.93
2022-08-01T00:40:43.078Z,63.63
2022-08-01T00:43:11.195Z,63.68
2022-08-01T00:45:39.059Z,63.28
2022-08-01T00:48:07.026Z,63.17
2022-08-01T00:50:34.995Z,62.74
2022-08-01T00:53:02.964Z,63.26
2022-08-01T00:55:30.863Z,64.50
2022-08-01T00:58:05.664Z,64.30
2022-08-01T01:00:53.010Z,64.36
2022-08-01T01:03:58.006Z,63.71
2022-08-01T01:06:38.988Z,64.50
2022-08-01T01:09:27.159Z,64.76
2022-08-01T01:12:13.520Z,64.45
2022-08-01T01:15:21.749Z,64.29
2022-08-01T01:18:03.227Z,63.91
2022-08-01T01:20:41.535Z,63.34
2022-08-01T01:23:50.260Z,63.08
2022-08-01T01:26:56.190Z,63.98
2022-08-01T01:30:00.115Z,65.03
2022-08-01T01:32:40.073Z,65.39
2022-08-01T01:35:16.653Z,65.46
2022-08-01T01:37:44.515Z,66.10
2022-08-01T01:40:12.813Z,65.82
2022-08-01T01:42:41.271Z,66.12
2022-08-01T01:45:09.389Z,66.12
2022-08-01T01:47:37.927Z,66.98
2022-08-01T01:50:07.836Z,66.13
2022-08-01T01:52:35.616Z,66.29
2022-08-01T01:55:07.406Z,66.74
2022-08-01T01:57:39.301Z,66.85
2022-08-01T02:00:09.934Z,67.41
2022-08-01T02:02:37.947Z,68.05
2022-08-01T02:05:11.723Z,67.10
2022-08-01T02:07:40.123Z,67.19
2022-08-01T02:10:08.787Z,67.55
2022-08-01T02:12:38.983Z,67.76
2022-08-01T02:15:08.142Z,67.77
2022-08-01T02:17:43.326Z,67.77
2022-08-01T02:20:12.142Z,68.30
2022-08-01T02:22:54.930Z,69.00
2022-08-01T02:26:09.999Z,69.62
2022-08-01T02:28:52.071Z,70.44
2022-08-01T02:31:22.627Z,70.61
2022-08-01T02:34:00.002Z,70.14
2022-08-01T02:36:31.740Z,70.23
2022-08-01T02:39:04.678Z,69.95
2022-08-01T02:41:33.154Z,69.24
2022-08-01T02:44:04.522Z,68.90
2022-08-01T02:47:03.494Z,68.57
2022-08-01T02:49:41.955Z,68.66
2022-08-01T02:52:12.683Z,69.01
2022-08-01T02:54:40.592Z,68.70
2022-08-01T02:57:09.262Z,68.68
2022-08-01T02:59:41.765Z,68.55
2022-08-01T03:02:10.364Z,69.02
2022-08-01T03:04:40.166Z,68.41
2022-08-01T03:07:10.209Z,68.28
2022-08-01T03:09:41.242Z,68.28
2022-08-01T03:12:12.946Z,68.65
2022-08-01T03:14:42.074Z,68.09
2022-08-01T03:17:10.656Z,68.28
2022-08-01T03:19:39.651Z,68.35
2022-08-01T03:22:09.439Z,68.85
2022-08-01T03:24:39.137Z,69.42
2022-08-01T03:27:07.575Z,69.62
2022-08-01T03:29:35.460Z,69.02
2022-08-01T03:32:03.944Z,69.03
2022-08-01T03:34:32.178Z,69.40
2022-08-01T03:37:25.539Z,69.51
2022-08-01T03:39:58.726Z,69.39
2022-08-01T03:42:33.794Z,68.79
2022-08-01T03:45:14.185Z,68.75
2022-08-01T03:47:45.055Z,68.63
2022-08-01T03:50:13.284Z,67.90
2022-08-01T03:52:41.084Z,67.39
2022-08-01T03:55:09.062Z,67.48
2022-08-01T03:57:37.194Z,67.71
2022-08-01T04:00:10.498Z,67.49
2022-08-01T04:02:41.501Z,67.80
2022-08-01T04:05:09.753Z,68.17
2022-08-01T04:07:38.018Z,67.98
2022-08-01T04:10:06.903Z,67.46
2022-08-01T04:12:35.315Z,67.29
2022-08-01T04:15:04.036Z,66.79
2022-08-01T04:17:31.904Z,67.05
2022-08-01T04:19:59.907Z,66.97
2022-08-01T04:22:28.229Z,66.74
2022-08-01T04:24:57.254Z,67.04
2022-08-01T04:27:50.798Z,67.69
2022-08-01T04:30:23.881Z,68.46
2022-08-01T04:32:51.722Z,69.15
2022-08-01T04:35:23.347Z,69.89
2022-08-01T04:38:09.675Z,70.94
2022-08-01T04:40:37.714Z,71.58
2022-08-01T04:43:05.720Z,71.39
2022-08-01T04:45:34.782Z,72.41
2022-08-01T04:48:02.765Z,72.97
2022-08-01T04:50:31.112Z,72.93
2022-08-01T04:52:58.993Z,72.56
2022-08-01T04:55:26.959Z,72.25
2022-08-01T04:57:54.743Z,71.94
2022-08-01T05:00:22.753Z,71.63
2022-08-01T05:02:50.533Z,71.75
2022-08-01T05:05:19.161Z,72.30
2022-08-01T05:07:46.950Z,72.85
2022-08-01T05:10:14.871Z,72.95
2022-08-01T05:12:42.836Z,73.27
2022-08-01T05:15:15.437Z,74.20
2022-08-01T05:17:43.673Z,73.41
2022-08-01T05:20:12.904Z,73.40
2022-08-01T05:22:41.704Z,73.82
2022-08-01T05:25:09.760Z,73.72
2022-08-01T05:27:41.830Z,74.16
2022-08-01T05:30:10.664Z,74.46
2022-08-01T05:32:39.297Z,74.91
2022-08-01T05:35:08.785Z,74.30
2022-08-01T05:37:36.637Z,74.44
2022-08-01T05:40:05.851Z,74.27
2022-08-01T05:42:33.624Z,74.62
2022-08-01T05:45:01.617Z,74.97
2022-08-01T05:47:29.406Z,74.43
2022-08-01T05:49:57.618Z,74.96
2022-08-01T05:52:25.416Z,75.60
2022-08-01T05:54:53.385Z,75.29
2022-08-01T05:57:21.319Z,75.16
2022-08-01T05:59:50.654Z,74.70
2022-08-01T06:02:18.456Z,74.28
2022-08-01T06:04:46.452Z,74.46
2022-08-01T06:07:14.420Z,74.48
2022-08-01T06:09:42.394Z,74.00
2022-08-01T06:12:10.353Z,73.96
2022-08-01T06:14:38.221Z,73.76
2022-08-01T06:17:06.089Z,73.51
2022-08-01T06:19:33.927Z,73.06
2022-08-01T06:22:01.742Z,73.08
2022-08-01T06:24:29.582Z,72.46
2022-08-01T06:26:57.449Z,72.08
2022-08-01T06:29:25.755Z,71.93
2022-08-01T06:31:55.909Z,71.72
2022-08-01T06:34:24.155Z,71.29
2022-08-01T06:36:51.986Z,71.00
2022-08-01T06:39:19.961Z,71.16
2022-08-01T06:41:48.092Z,71.18
2022-08-01T06:44:16.026Z,70.47
2022-08-01T06:46:44.165Z,70.18
2022-08-01T06:49:12.074Z,70.37
2022-08-01T06:51:39.923Z,70.29
2022-08-01T06:54:08.013Z,70.27
2022-08-01T06:56:36.548Z,70.13
2022-08-01T06:59:04.517Z,69.91
2022-08-01T07:01:35.234Z,69.71
2022-08-01T07:04:04.143Z,69.52
2022-08-01T07:06:32.210Z,69.64
2022-08-01T07:09:08.269Z,70.08
2022-08-01T07:11:38.898Z,70.49
2022-08-01T07:14:06.716Z,70.53
2022-08-01T07:16:34.628Z,70.49
2022-08-01T07:19:02.673Z,70.41
2022-08-01T07:21:39.125Z,70.57
2022-08-01T07:24:13.397Z,70.74
2022-08-01T07:26:52.368Z,70.77
2022-08-01T07:29:27.350Z,71.18
2022-08-01T07:31:56.540Z,71.41
2022-08-01T07:34:25.133Z,71.41
2022-08-01T07:36:53.501Z,70.89
2022-08-01T07:39:21.773Z,70.73
2022-08-01T07:42:06.426Z,70.89
2022-08-01T07:44:36.962Z,70.72
2022-08-01T07:47:05.488Z,70.62
2022-08-01T07:49:37.700Z,70.73
2022-08-01T07:52:07.315Z,70.85
2022-08-01T07:54:35.313Z,70.63
2022-08-01T07:57:04.236Z,70.30
2022-08-01T07:59:32.353Z,70.88
2022-08-01T08:02:00.376Z,71.24
2022-08-01T08:04:28.637Z,71.27
2022-08-01T08:06:56.559Z,71.08
2022-08-01T08:09:24.438Z,70.81
2022-08-01T08:11:52.349Z,70.51
2022-08-01T08:14:20.323Z,70.39
2022-08-01T08:16:48.333Z,70.01
2022-08-01T08:19:16.208Z,69.56
2022-08-01T08:21:45.195Z,69.14
2022-08-01T08:24:26.746Z,68.76
2022-08-01T08:26:57.938Z,68.35
2022-08-01T08:29:27.524Z,67.91
2022-08-01T08:31:59.037Z,67.30
2022-08-01T08:34:27.580Z,66.98
2022-08-01T08:36:56.449Z,67.21
2022-08-01T08:39:24.753Z,67.56
2022-08-01T08:41:52.586Z,67.98
2022-08-01T08:44:26.575Z,68.12
2022-08-01T08:46:56.139Z,68.32
2022-08-01T08:49:35.644Z,68.36
2022-08-01T08:52:05.206Z,68.29
2022-08-01T08:54:33.434Z,68.80
2022-08-01T08:57:02.762Z,68.57
2022-08-01T08:59:31.198Z,68.53
2022-08-01T09:01:59.884Z,68.57
2022-08-01T09:04:27.857Z,68.94
2022-08-01T09:06:55.978Z,68.55
2022-08-01T09:09:24.545Z,67.92
2022-08-01T09:11:56.895Z,67.34
2022-08-01T09:14:28.464Z,66.70
2022-08-01T09:17:03.642Z,65.84
2022-08-01T09:19:54.536Z,65.18
2022-08-01T09:22:25.495Z,65.56
2022-08-01T09:25:05.157Z,65.11
2022-08-01T09:27:33.126Z,64.14
2022-08-01T09:30:20.708Z,63.30
2022-08-01T09:33:01.824Z,62.66
2022-08-01T09:35:43.345Z,61.45
2022-08-01T09:38:19.925Z,60.80
2022-08-01T09:40:50.312Z,59.00
2022-08-01T09:43:19.208Z,58.90
2022-08-01T09:45:50.874Z,59.70
2022-08-01T09:48:22.715Z,59.50
2022-08-01T09:51:04.367Z,61.36
2022-08-01T09:53:53.666Z,59.81
2022-08-01T09:56:23.292Z,59.56
2022-08-01T09:59:02.268Z,59.70
2022-08-01T10:01:46.830Z,60.59
2022-08-01T10:04:18.416Z,60.88
2022-08-01T10:06:50.977Z,61.19
2022-08-01T10:09:35.925Z,62.26
2022-08-01T10:12:15.501Z,60.04
2022-08-01T10:14:46.777Z,59.20
2022-08-01T10:17:20.399Z,58.33
2022-08-01T10:19:50.806Z,58.58
2022-08-01T10:22:19.194Z,58.20
2022-08-01T10:24:48.696Z,59.17
2022-08-01T10:27:24.447Z,59.51
2022-08-01T10:30:15.538Z,57.36
2022-08-01T10:32:54.875Z,58.47
2022-08-01T10:35:45.880Z,57.39
2022-08-01T10:38:13.764Z,57.30
2022-08-01T10:40:45.472Z,58.31
2022-08-01T10:43:21.694Z,59.04
2022-08-01T10:45:50.534Z,60.07
2022-08-01T10:48:50.279Z,59.21
2022-08-01T10:51:21.519Z,59.14
2022-08-01T10:53:54.361Z,58.96
2022-08-01T10:56:27.265Z,59.40
2022-08-01T10:59:06.540Z,57.76
2022-08-01T11:01:45.053Z,56.80
2022-08-01T11:04:18.074Z,55.69
2022-08-01T11:06:53.329Z,55.29
2022-08-01T11:09:37.387Z,55.35
2022-08-01T11:12:23.000Z,54.06
2022-08-01T11:15:02.805Z,54.45
2022-08-01T11:17:49.671Z,54.46
2022-08-01T11:20:25.484Z,53.69
2022-08-01T11:23:02.033Z,54.67
2022-08-01T11:26:06.295Z,53.99
2022-08-01T11:28:36.869Z,53.69
2022-08-01T11:31:11.064Z,53.79
2022-08-01T11:33:46.247Z,52.31
2022-08-01T11:36:15.673Z,53.00
2022-08-01T11:38:49.267Z,52.01
2022-08-01T11:41:37.193Z,52.24
2022-08-01T11:44:13.051Z,52.69
2022-08-01T11:46:54.115Z,53.39
2022-08-01T11:49:24.767Z,52.95
2022-08-01T11:52:09.381Z,53.52
2022-08-01T11:54:45.028Z,53.29
2022-08-01T11:57:33.897Z,53.48
2022-08-01T12:00:11.320Z,54.08
2022-08-01T12:02:45.211Z,54.43
2022-08-01T12:05:17.689Z,54.06
2022-08-01T12:07:47.464Z,54.21
2022-08-01T12:10:17.333Z,54.70
2022-08-01T12:13:08.088Z,54.64
2022-08-01T12:15:38.734Z,54.31
2022-08-01T12:18:07.808Z,54.07
2022-08-01T12:21:01.807Z,52.49
2022-08-01T12:23:29.858Z,53.13
2022-08-01T12:25:57.672Z,53.29
2022-08-01T12:28:26.208Z,52.42
2022-08-01T12:30:54.381Z,50.56
2022-08-01T12:33:22.368Z,48.55
2022-08-01T12:35:50.314Z,48.09
2022-08-01T12:38:23.218Z,48.11
2022-08-01T12:40:53.001Z,47.50
2022-08-01T12:43:27.830Z,46.97
2022-08-01T12:45:59.526Z,47.74
2022-08-01T12:48:27.579Z,46.58
2022-08-01T12:50:57.100Z,46.14
2022-08-01T12:53:25.138Z,47.48
2022-08-01T12:55:58.430Z,45.86
2022-08-01T12:58:35.917Z,45.88
2022-08-01T13:01:07.142Z,44.38
2022-08-01T13:03:35.134Z,45.60
2022-08-01T13:06:16.868Z,45.42
2022-08-01T13:08:46.276Z,44.80
2022-08-01T13:11:16.652Z,43.70
2022-08-01T13:13:50.363Z,43.33
2022-08-01T13:16:48.836Z,42.96
2022-08-01T13:19:14.972Z,44.29
2022-08-01T13:21:56.099Z,43.63
2022-08-01T13:24:28.501Z,41.47
2022-08-01T13:27:02.210Z,41.05
2022-08-01T13:29:43.257Z,41.92
2022-08-01T13:32:27.574Z,42.85
2022-08-01T13:35:06.107Z,43.17
2022-08-01T13:37:34.108Z,40.95
2022-08-01T13:40:02.002Z,40.64
2022-08-01T13:42:30.777Z,41.17
2022-08-01T13:44:58.800Z,40.64
2022-08-01T13:47:31.704Z,40.83
2022-08-01T13:50:03.932Z,41.26
2022-08-01T13:52:32.591Z,40.84
2022-08-01T13:55:00.760Z,39.40
2022-08-01T13:57:36.776Z,40.08
2022-08-01T14:00:07.648Z,39.14
2022-08-01T14:02:40.334Z,39.72
2022-08-01T14:05:08.735Z,39.22
2022-08-01T14:07:36.572Z,39.04
2022-08-01T14:10:19.335Z,38.89
2022-08-01T14:12:49.390Z,39.62
2022-08-01T14:15:18.239Z,38.96
2022-08-01T14:18:06.772Z,38.60
2022-08-01T14:20:35.825Z,37.59
2022-08-01T14:23:03.953Z,37.72
2022-08-01T14:26:00.405Z,37.58
2022-08-01T14:28:28.852Z,34.49
2022-08-01T14:30:58.038Z,32.87
2022-08-01T14:33:26.293Z,32.15
2022-08-01T14:36:05.189Z,31.89
2022-08-01T14:38:42.503Z,32.20
2022-08-01T14:41:15.718Z,32.36
2022-08-01T14:43:43.796Z,33.02
2022-08-01T14:46:13.508Z,33.74
2022-08-01T14:48:41.571Z,31.93
2022-08-01T14:51:09.822Z,32.45
2022-08-01T14:53:38.602Z,33.34
2022-08-01T14:56:07.502Z,33.66
2022-08-01T14:58:35.388Z,35.83
2022-08-01T15:01:03.478Z,34.26
2022-08-01T15:03:32.796Z,33.98
2022-08-01T15:06:00.741Z,32.78
2022-08-01T15:08:28.906Z,32.89
2022-08-01T15:10:57.730Z,32.88
2022-08-01T15:13:25.551Z,32.49
2022-08-01T15:15:53.331Z,32.88
2022-08-01T15:18:21.404Z,32.67
2022-08-01T15:20:49.275Z,32.98
2022-08-01T15:23:17.886Z,32.35
2022-08-01T15:25:45.764Z,31.48
2022-08-01T15:28:13.664Z,30.89
2022-08-01T15:30:41.724Z,31.72
2022-08-01T15:33:09.529Z,32.88
2022-08-01T15:35:37.394Z,33.36
2022-08-01T15:38:05.168Z,33.84
2022-08-01T15:40:35.671Z,33.86
2022-08-01T15:43:03.802Z,35.16
2022-08-01T15:45:46.923Z,34.43
2022-08-01T15:48:17.381Z,35.40
2022-08-01T15:50:45.239Z,39.81
2022-08-01T15:53:13.032Z,36.87
2022-08-01T15:55:40.987Z,36.69
2022-08-01T15:58:11.757Z,36.49
2022-08-01T16:00:40.166Z,36.60
2022-08-01T16:03:08.552Z,35.54
2022-08-01T16:05:42.887Z,35.78
2022-08-01T16:08:12.625Z,35.31
2022-08-01T16:10:40.673Z,34.70
2022-08-01T16:13:09.124Z,36.80
2022-08-01T16:15:38.072Z,39.36
2022-08-01T16:18:09.873Z,40.22
2022-08-01T16:20:42.942Z,42.29
2022-08-01T16:23:12.405Z,43.78
2022-08-01T16:25:40.279Z,44.85
2022-08-01T16:28:10.020Z,46.07
2022-08-01T16:30:48.803Z,45.88
2022-08-01T16:33:50.078Z,46.44
2022-08-01T16:36:16.735Z,44.85
2022-08-01T16:38:45.660Z,46.32
2022-08-01T16:41:20.207Z,46.98
2022-08-01T16:43:53.821Z,47.64
2022-08-01T16:46:27.007Z,47.70
2022-08-01T16:48:55.118Z,48.03
2022-08-01T16:51:23.359Z,48.80
2022-08-01T16:53:51.222Z,49.07
2022-08-01T16:56:19.212Z,49.76
2022-08-01T16:58:47.043Z,49.98
2022-08-01T17:01:59.906Z,50.44
2022-08-01T17:04:02.938Z,50.99
2022-08-01T17:06:30.928Z,51.60
2022-08-01T17:08:58.838Z,51.64
2022-08-01T17:11:26.835Z,51.83
2022-08-01T17:13:54.740Z,51.89
2022-08-01T17:16:22.954Z,52.28
2022-08-01T17:18:50.838Z,52.84
2022-08-01T17:21:18.705Z,53.62
2022-08-01T17:23:46.493Z,54.72
2022-08-01T17:26:14.368Z,54.97
2022-08-01T17:28:43.103Z,55.43
2022-08-01T17:31:11.028Z,55.74
2022-08-01T17:33:46.143Z,56.24
2022-08-01T17:36:18.215Z,56.17
2022-08-01T17:38:46.078Z,56.47
2022-08-01T17:41:14.131Z,56.90
2022-08-01T17:43:41.960Z,57.21
2022-08-01T17:46:09.736Z,57.47
2022-08-01T17:48:37.596Z,57.48
2022-08-01T17:51:06.638Z,57.53
2022-08-01T17:53:34.520Z,58.20
2022-08-01T17:56:05.837Z,58.84
2022-08-01T17:58:50.526Z,59.13
2022-08-01T18:01:20.176Z,58.80
2022-08-01T18:03:48.435Z,59.27
2022-08-01T18:06:19.930Z,59.53
2022-08-01T18:08:53.165Z,59.90
2022-08-01T18:11:24.686Z,60.33
2022-08-01T18:13:56.874Z,60.44
2022-08-01T18:16:28.258Z,60.69
2022-08-01T18:18:56.312Z,61.10
2022-08-01T18:21:24.338Z,63.33
2022-08-01T18:23:52.560Z,64.92
2022-08-01T18:26:21.593Z,63.28
2022-08-01T18:28:49.713Z,60.93
2022-08-01T18:31:17.954Z,58.40
2022-08-01T18:33:46.306Z,57.50
2022-08-01T18:36:25.509Z,57.83
2022-08-01T18:39:01.795Z,57.96
2022-08-01T18:41:35.555Z,59.46
2022-08-01T18:44:08.331Z,60.01
2022-08-01T18:46:38.201Z,60.95
2022-08-01T18:49:10.424Z,64.47
2022-08-01T18:51:43.768Z,66.44
2022-08-01T18:54:13.705Z,65.72
2022-08-01T18:56:43.286Z,64.09
2022-08-01T18:59:11.335Z,62.18
2022-08-01T19:01:39.991Z,61.11
2022-08-01T19:04:08.338Z,60.50
2022-08-01T19:06:36.475Z,58.17
2022-08-01T19:09:05.031Z,57.71
2022-08-01T19:11:33.368Z,58.94
2022-08-01T19:14:02.519Z,60.31
2022-08-01T19:16:30.777Z,61.22
2022-08-01T19:18:58.674Z,64.64
2022-08-01T19:21:26.568Z,65.30
2022-08-01T19:24:12.991Z,63.97
2022-08-01T19:26:40.955Z,63.24
2022-08-01T19:29:35.557Z,61.76
2022-08-01T19:32:10.298Z,61.24
2022-08-01T19:34:50.000Z,60.10
2022-08-01T19:37:18.129Z,58.47
2022-08-01T19:39:45.997Z,58.67
2022-08-01T19:42:14.527Z,59.68
2022-08-01T19:44:42.551Z,60.22
2022-08-01T19:47:10.722Z,62.49
2022-08-01T19:49:38.796Z,64.75
2022-08-01T19:52:06.708Z,63.58
2022-08-01T19:54:38.689Z,62.43
2022-08-01T19:57:07.375Z,61.48
2022-08-01T19:59:35.954Z,60.55
2022-08-01T20:02:04.803Z,58.88
2022-08-01T20:04:33.926Z,58.52
2022-08-01T20:07:03.211Z,59.28
2022-08-01T20:09:31.491Z,59.98
2022-08-01T20:11:59.286Z,63.59
2022-08-01T20:14:27.340Z,65.03
2022-08-01T20:16:55.449Z,63.94
2022-08-01T20:19:24.712Z,62.80
2022-08-01T20:22:04.665Z,61.60
2022-08-01T20:24:43.503Z,61.06
2022-08-01T20:27:13.222Z,60.40
2022-08-01T20:29:41.723Z,58.80
2022-08-01T20:32:09.777Z,58.57
2022-08-01T20:34:39.396Z,58.99
2022-08-01T20:37:13.090Z,60.02
2022-08-01T20:39:45.146Z,63.27
2022-08-01T20:42:14.360Z,64.41
2022-08-01T20:44:42.969Z,64.17
2022-08-01T20:47:11.220Z,62.51
2022-08-01T20:49:39.518Z,61.59
2022-08-01T20:52:11.307Z,60.74
2022-08-01T20:54:42.070Z,59.01
2022-08-01T20:57:25.365Z,58.33
2022-08-01T20:59:57.636Z,60.69
2022-08-01T21:02:53.464Z,64.38
2022-08-01T21:05:33.105Z,65.73
2022-08-01T21:08:37.437Z,64.22
2022-08-01T21:11:07.018Z,61.66
2022-08-01T21:13:41.341Z,60.89
2022-08-01T21:16:24.301Z,60.31
2022-08-01T21:19:18.512Z,59.75
2022-08-01T21:21:56.340Z,58.07
2022-08-01T21:24:24.667Z,58.04
2022-08-01T21:26:52.496Z,60.18
2022-08-01T21:29:20.466Z,63.35
2022-08-01T21:32:08.348Z,64.63
2022-08-01T21:34:38.338Z,63.76
2022-08-01T21:37:07.681Z,62.14
2022-08-01T21:39:36.833Z,61.25
2022-08-01T21:42:08.990Z,60.32
2022-08-01T21:44:44.871Z,58.60
2022-08-01T21:47:13.652Z,57.96
2022-08-01T21:49:41.782Z,59.93
2022-08-01T21:52:16.565Z,62.45
2022-08-01T21:55:34.753Z,64.54
2022-08-01T21:58:27.874Z,63.03
2022-08-01T22:01:07.498Z,61.57
2022-08-01T22:03:47.703Z,60.56
2022-08-01T22:06:16.494Z,60.04
2022-08-01T22:08:53.151Z,58.17
2022-08-01T22:11:30.900Z,58.04
2022-08-01T22:14:02.203Z,59.37
2022-08-01T22:16:31.358Z,60.38
2022-08-01T22:19:01.811Z,63.44
2022-08-01T22:21:29.628Z,65.07
2022-08-01T22:23:57.425Z,63.56
2022-08-01T22:26:29.147Z,62.33
2022-08-01T22:28:57.548Z,61.57
2022-08-01T22:31:25.991Z,61.25
2022-08-01T22:33:53.974Z,60.63
2022-08-01T22:36:21.976Z,60.16
2022-08-01T22:38:50.124Z,60.01
2022-08-01T22:41:21.121Z,58.64
2022-08-01T22:44:09.261Z,58.93
2022-08-01T22:46:44.166Z,59.28
2022-08-01T22:49:35.017Z,60.76
2022-08-01T22:52:26.938Z,64.63
2022-08-01T22:55:05.291Z,66.62
2022-08-01T22:57:47.266Z,64.90
2022-08-01T23:00:18.160Z,62.67
2022-08-01T23:02:47.788Z,61.81
2022-08-01T23:05:22.650Z,61.18
2022-08-01T23:07:55.948Z,60.39
2022-08-01T23:10:25.939Z,60.03
2022-08-01T23:12:54.891Z,58.36
2022-08-01T23:15:23.561Z,58.43
2022-08-01T23:17:51.503Z,59.06
2022-08-01T23:20:19.340Z,60.34
2022-08-01T23:22:47.184Z,63.62
2022-08-01T23:25:15.755Z,65.15
2022-08-01T23:27:52.032Z,63.78
2022-08-01T23:30:34.861Z,62.26
2022-08-01T23:33:02.818Z,61.50
2022-08-01T23:35:30.784Z,60.59
2022-08-01T23:38:02.892Z,59.54
2022-08-01T23:40:32.472Z,58.11
2022-08-01T23:43:01.431Z,58.62
2022-08-01T23:45:38.281Z,59.21
2022-08-01T23:48:17.634Z,63.18
2022-08-01T23:50:45.527Z,64.70
2022-08-01T23:53:13.568Z,63.12
2022-08-01T23:55:43.327Z,62.54
2022-08-01T23:58:12.177Z,61.31
